createdAt,value
2022-11-24T00:01:39.102Z,99606.97
2022-11-24T00:04:25.918Z,99621.84
2022-11-24T00:07:13.180Z,99620.72
2022-11-24T00:09:59.913Z,99625.84
2022-11-24T00:12:46.753Z,99617.72
2022-11-24T00:15:33.504Z,99603.38
2022-11-24T00:18:21.925Z,99620.34
2022-11-24T00:21:08.925Z,99616.84
2022-11-24T00:23:56.331Z,99610.38
2022-11-24T00:26:43.580Z,99621.50
2022-11-24T00:29:32.514Z,99599.00
2022-11-24T00:32:19.448Z,99607.94
2022-11-24T00:35:10.973Z,99611.50
2022-11-24T00:37:57.690Z,99616.09
2022-11-24T00:40:44.534Z,99591.44
2022-11-24T00:43:31.259Z,99613.44
2022-11-24T00:46:18.299Z,99629.13
2022-11-24T00:49:05.526Z,99619.91
2022-11-24T00:51:52.324Z,99599.84
2022-11-24T00:54:39.451Z,99601.53
2022-11-24T00:57:26.572Z,99606.97
2022-11-24T01:00:16.889Z,99608.59
2022-11-24T01:03:04.010Z,99610.72
2022-11-24T01:05:50.725Z,99617.75
2022-11-24T01:08:39.331Z,99607.69
2022-11-24T01:11:51.864Z,99598.78
2022-11-24T01:14:39.482Z,99618.56
2022-11-24T01:17:27.121Z,99626.91
2022-11-24T01:20:14.444Z,99623.44
2022-11-24T01:23:01.083Z,99618.59
2022-11-24T01:25:48.111Z,99617.50
2022-11-24T01:28:35.352Z,99615.31
2022-11-24T01:31:22.860Z,99606.38
2022-11-24T01:34:09.532Z,99626.16
2022-11-24T01:36:56.247Z,99627.50
2022-11-24T01:39:42.794Z,99632.66
2022-11-24T01:42:40.495Z,99638.34
2022-11-24T01:45:32.970Z,99641.63
2022-11-24T01:48:43.921Z,99632.41
2022-11-24T01:51:33.416Z,99642.16
2022-11-24T01:54:45.859Z,99630.25
2022-11-24T01:57:39.441Z,99627.03
2022-11-24T02:00:26.390Z,99598.88
2022-11-24T02:03:22.044Z,99597.53
2022-11-24T02:06:14.238Z,99603.75
2022-11-24T02:09:09.694Z,99643.28
2022-11-24T02:11:57.429Z,99647.88
2022-11-24T02:14:45.218Z,99642.69
2022-11-24T02:17:35.157Z,99634.84
2022-11-24T02:20:22.065Z,99645.09
2022-11-24T02:23:27.501Z,99647.53
2022-11-24T02:26:36.403Z,99625.34
2022-11-24T02:29:23.366Z,99634.59
2022-11-24T02:32:10.512Z,99636.22
2022-11-24T02:35:05.262Z,99635.94
2022-11-24T02:37:51.769Z,99614.00
2022-11-24T02:40:38.817Z,99635.91
2022-11-24T02:43:26.095Z,99620.50
2022-11-24T02:46:13.256Z,99628.63
2022-11-24T02:49:00.102Z,99601.88
2022-11-24T02:51:46.922Z,99621.66
2022-11-24T02:54:34.174Z,99621.13
2022-11-24T02:57:23.084Z,99620.59
2022-11-24T03:00:11.292Z,99602.72
2022-11-24T03:02:58.779Z,99613.25
2022-11-24T03:05:45.590Z,99630.03
2022-11-24T03:08:35.062Z,99626.78
2022-11-24T03:11:22.033Z,99625.44
2022-11-24T03:14:12.104Z,99591.91
2022-11-24T03:16:59.141Z,99630.63
2022-11-24T03:19:46.544Z,99621.63
2022-11-24T03:22:33.202Z,99609.94
2022-11-24T03:25:20.342Z,99616.97
2022-11-24T03:28:07.211Z,99639.13
2022-11-24T03:30:57.262Z,99637.81
2022-11-24T03:33:43.915Z,99605.56
2022-11-24T03:36:30.628Z,99636.72
2022-11-24T03:39:17.157Z,99612.56
2022-11-24T03:42:03.995Z,99636.72
2022-11-24T03:44:50.469Z,99620.72
2022-11-24T03:47:37.654Z,99607.72
2022-11-24T03:50:24.391Z,99631.81
2022-11-24T03:53:11.487Z,99637.44
2022-11-24T03:55:58.532Z,99630.91
2022-11-24T03:58:45.500Z,99635.06
2022-11-24T04:01:32.223Z,99654.56
2022-11-24T04:04:19.692Z,99655.28
2022-11-24T04:07:06.277Z,99653.91
2022-11-24T04:09:53.586Z,99662.22
2022-11-24T04:12:46.393Z,99649.97
2022-11-24T04:15:33.583Z,99639.13
2022-11-24T04:18:20.961Z,99650.78
2022-11-24T04:21:10.875Z,99657.53
2022-11-24T04:23:59.431Z,99659.53
2022-11-24T04:26:46.143Z,99673.88
2022-11-24T04:29:33.047Z,99678.75
2022-11-24T04:32:20.056Z,99681.44
2022-11-24T04:35:07.027Z,99677.13
2022-11-24T04:37:54.393Z,99660.84
2022-11-24T04:40:40.821Z,99658.94
2022-11-24T04:43:27.766Z,99666.22
2022-11-24T04:46:14.718Z,99649.72
2022-11-24T04:49:01.977Z,99693.34
2022-11-24T04:51:48.787Z,99677.38
2022-11-24T04:54:38.033Z,99667.31
2022-11-24T04:57:26.985Z,99698.78
2022-11-24T05:00:16.740Z,99690.94
2022-11-24T05:03:03.093Z,99692.03
2022-11-24T05:05:50.285Z,99694.19
2022-11-24T05:08:37.032Z,99673.34
2022-11-24T05:11:24.252Z,99696.69
2022-11-24T05:14:10.818Z,99692.28
2022-11-24T05:16:57.765Z,99706.59
2022-11-24T05:19:44.370Z,99693.63
2022-11-24T05:22:31.978Z,99696.91
2022-11-24T05:25:18.212Z,99717.22
2022-11-24T05:28:09.220Z,99711.00
2022-11-24T05:31:02.278Z,99709.09
2022-11-24T05:33:49.272Z,99727.75
2022-11-24T05:36:54.208Z,99725.34
2022-11-24T05:39:41.385Z,99724.53
2022-11-24T05:42:47.286Z,99737.03
2022-11-24T05:45:35.277Z,99727.00
2022-11-24T05:48:21.994Z,99732.19
2022-11-24T05:51:09.561Z,99739.47
2022-11-24T05:53:56.086Z,99709.09
2022-11-24T05:56:42.829Z,99745.94
2022-11-24T05:59:29.465Z,99726.06
2022-11-24T06:02:16.206Z,99755.63
2022-11-24T06:05:02.552Z,99738.44
2022-11-24T06:07:49.471Z,99765.47
2022-11-24T06:10:36.146Z,99762.13
2022-11-24T06:13:22.876Z,99765.34
2022-11-24T06:16:09.230Z,99755.59
2022-11-24T06:18:55.873Z,99773.44
2022-11-24T06:21:43.943Z,99782.94
2022-11-24T06:24:30.508Z,99778.06
2022-11-24T06:27:17.649Z,99772.03
2022-11-24T06:30:04.664Z,99788.22
2022-11-24T06:32:55.184Z,99773.81
2022-11-24T06:35:41.609Z,99754.91
2022-11-24T06:38:30.862Z,99794.28
2022-11-24T06:41:18.329Z,99781.03
2022-11-24T06:44:05.257Z,99797.03
2022-11-24T06:46:52.021Z,99794.28
2022-11-24T06:49:38.531Z,99796.94
2022-11-24T06:52:24.980Z,99778.94
2022-11-24T06:55:11.179Z,99788.78
2022-11-24T06:57:58.085Z,99794.94
2022-11-24T07:00:44.637Z,99794.06
2022-11-24T07:03:31.545Z,99784.06
2022-11-24T07:06:19.088Z,99774.25
2022-11-24T07:09:05.754Z,99790.25
2022-11-24T07:11:51.965Z,99776.16
2022-11-24T07:14:38.595Z,99791.88
2022-11-24T07:17:26.546Z,99787.88
2022-11-24T07:20:13.289Z,99791.66
2022-11-24T07:23:00.228Z,99790.06
2022-11-24T07:25:46.572Z,99789.78
2022-11-24T07:28:33.437Z,99791.94
2022-11-24T07:31:21.560Z,99780.63
2022-11-24T07:34:07.984Z,99788.72
2022-11-24T07:36:54.867Z,99790.91
2022-11-24T07:39:40.889Z,99774.91
2022-11-24T07:42:28.013Z,99789.78
2022-11-24T07:45:14.354Z,99807.19
2022-11-24T07:48:00.999Z,99797.13
2022-11-24T07:50:52.521Z,99813.69
2022-11-24T07:53:42.405Z,99809.00
2022-11-24T07:56:29.222Z,99809.78
2022-11-24T07:59:15.963Z,99810.63
2022-11-24T08:02:02.489Z,99818.13
2022-11-24T08:04:48.961Z,99801.00
2022-11-24T08:07:35.403Z,99821.97
2022-11-24T08:10:21.834Z,99817.16
2022-11-24T08:13:08.241Z,99825.78
2022-11-24T08:15:54.788Z,99820.41
2022-11-24T08:18:41.906Z,99823.06
2022-11-24T08:21:29.066Z,99834.34
2022-11-24T08:24:15.672Z,99811.28
2022-11-24T08:27:02.178Z,99851.75
2022-11-24T08:29:48.612Z,99849.91
2022-11-24T08:32:35.290Z,99831.50
2022-11-24T08:35:21.888Z,99846.72
2022-11-24T08:38:08.630Z,99853.50
2022-11-24T08:40:54.855Z,99858.84
2022-11-24T08:43:42.523Z,99865.06
2022-11-24T08:46:29.168Z,99846.59
2022-11-24T08:49:16.047Z,99867.22
2022-11-24T08:52:02.484Z,99868.78
2022-11-24T08:54:49.470Z,99869.84
2022-11-24T08:57:35.943Z,99869.03
2022-11-24T09:00:23.928Z,99873.16
2022-11-24T09:03:12.241Z,99859.91
2022-11-24T09:05:58.768Z,99863.50
2022-11-24T09:08:45.168Z,99855.06
2022-11-24T09:11:33.935Z,99847.44
2022-11-24T09:14:20.538Z,99864.03
2022-11-24T09:17:07.345Z,99838.03
2022-11-24T09:22:57.752Z,99856.28
2022-11-24T09:25:44.119Z,99862.50
2022-11-24T09:28:30.961Z,99857.88
2022-11-24T09:31:18.149Z,99860.38
2022-11-24T09:34:06.175Z,99838.13
2022-11-24T09:36:52.394Z,99847.97
2022-11-24T09:39:39.054Z,99870.53
2022-11-24T09:42:53.401Z,99874.09
2022-11-24T09:48:54.085Z,99865.56
2022-11-24T09:51:41.884Z,99858.50
2022-11-24T09:54:33.227Z,99858.78
2022-11-24T09:57:22.135Z,99867.00
2022-11-24T10:00:15.479Z,99867.31
2022-11-24T10:03:02.477Z,99875.41
2022-11-24T10:05:50.691Z,99858.91
2022-11-24T10:09:22.740Z,99857.31
2022-11-24T10:12:24.141Z,99856.78
2022-11-24T10:15:31.332Z,99834.47
2022-11-24T10:18:35.369Z,99860.78
2022-11-24T10:21:51.371Z,99855.94
2022-11-24T10:24:59.752Z,99848.97
2022-11-24T10:27:49.734Z,99847.41
2022-11-24T10:30:36.476Z,99828.94
2022-11-24T10:33:30.385Z,99852.84
2022-11-24T10:36:26.634Z,99855.78
2022-11-24T10:39:20.383Z,99851.75
2022-11-24T10:42:28.208Z,99836.00
2022-11-24T10:45:17.107Z,99864.19
2022-11-24T10:48:04.446Z,99865.81
2022-11-24T10:50:54.491Z,99869.25
2022-11-24T10:53:41.713Z,99885.25
2022-11-24T10:56:39.250Z,99884.97
2022-11-24T10:59:25.778Z,99858.13
2022-11-24T11:02:28.178Z,99866.78
2022-11-24T11:05:33.600Z,99892.53
2022-11-24T11:08:23.256Z,99891.44
2022-11-24T11:11:20.447Z,99887.63
2022-11-24T11:14:09.050Z,99886.00
2022-11-24T11:16:58.364Z,99873.81
2022-11-24T11:19:49.491Z,99892.00
2022-11-24T11:22:37.533Z,99889.91
2022-11-24T11:25:31.192Z,99865.22
2022-11-24T11:28:32.236Z,99881.84
2022-11-24T11:31:23.004Z,99855.78
2022-11-24T11:34:13.902Z,99854.44
2022-11-24T11:37:09.995Z,99864.75
2022-11-24T11:39:57.354Z,99883.22
2022-11-24T11:43:02.433Z,99872.94
2022-11-24T11:45:57.777Z,99880.03
2022-11-24T11:48:47.023Z,99876.00
2022-11-24T11:52:11.742Z,99887.41
2022-11-24T11:55:27.304Z,99885.25
2022-11-24T11:58:18.121Z,99892.56
2022-11-24T12:01:30.890Z,99889.81
2022-11-24T12:04:33.067Z,99891.72
2022-11-24T12:08:10.916Z,99893.09
2022-11-24T12:11:06.278Z,99893.09
2022-11-24T12:14:17.343Z,99874.94
2022-11-24T12:17:29.498Z,99885.25
2022-11-24T12:20:40.651Z,99872.25
2022-11-24T12:23:58.192Z,99891.25
2022-11-24T12:26:55.447Z,99894.78
2022-11-24T12:29:44.418Z,99895.84
2022-11-24T12:32:51.949Z,99899.88
2022-11-24T12:35:54.480Z,99898.00
2022-11-24T12:38:41.376Z,99906.69
2022-11-24T12:41:46.774Z,99906.09
2022-11-24T12:45:13.256Z,99904.47
2022-11-24T12:48:06.958Z,99911.75
2022-11-24T12:50:55.558Z,99906.84
2022-11-24T12:53:42.983Z,99883.00
2022-11-24T12:56:38.290Z,99906.00
2022-11-24T12:59:59.634Z,99921.72
2022-11-24T13:02:55.855Z,99921.72
2022-11-24T13:06:13.901Z,99916.28
2022-11-24T13:09:14.544Z,99914.13
2022-11-24T13:12:16.227Z,99926.31
2022-11-24T13:15:36.058Z,99901.06
2022-11-24T13:18:47.908Z,99923.06
2022-11-24T13:21:51.117Z,99916.28
2022-11-24T13:24:41.937Z,99910.59
2022-11-24T13:27:32.197Z,99924.13
2022-11-24T13:30:35.640Z,99894.03
2022-11-24T13:33:33.848Z,99914.19
2022-11-24T13:36:22.864Z,99905.19
2022-11-24T13:39:20.594Z,99922.31
2022-11-24T13:42:06.989Z,99919.06
2022-11-24T13:45:03.976Z,99914.13
2022-11-24T13:47:52.688Z,99914.94
2022-11-24T13:51:04.096Z,99922.28
2022-11-24T13:53:51.127Z,99921.72
2022-11-24T13:56:37.645Z,99916.81
2022-11-24T13:59:34.446Z,99916.88
2022-11-24T14:02:23.206Z,99919.59
2022-11-24T14:05:13.856Z,99913.91
2022-11-24T14:08:05.866Z,99914.09
2022-11-24T14:10:53.078Z,99894.56
2022-11-24T14:13:39.617Z,99927.63
2022-11-24T14:16:27.020Z,99920.56
2022-11-24T14:19:18.792Z,99923.88
2022-11-24T14:22:05.867Z,99932.53
2022-11-24T14:24:55.824Z,99916.25
2022-11-24T14:27:42.100Z,99942.56
2022-11-24T14:30:31.800Z,99929.53
2022-11-24T14:33:19.982Z,99942.25
2022-11-24T14:36:17.438Z,99938.75
2022-11-24T14:39:04.128Z,99955.84
2022-11-24T14:41:55.329Z,99961.78
2022-11-24T14:44:42.096Z,99964.72
2022-11-24T14:47:33.972Z,99958.47
2022-11-24T14:50:23.184Z,99973.16
2022-11-24T14:53:14.956Z,99944.63
2022-11-24T14:56:35.767Z,99981.22
2022-11-24T14:59:25.166Z,99984.44
2022-11-24T15:02:56.653Z,99972.81
2022-11-24T15:05:53.764Z,99970.88
2022-11-24T15:08:45.489Z,99962.72
2022-11-24T15:11:33.947Z,99982.22
2022-11-24T15:14:31.830Z,99957.50
2022-11-24T15:17:24.998Z,99963.47
2022-11-24T15:20:21.003Z,99970.78
2022-11-24T15:23:27.783Z,100002.31
2022-11-24T15:26:14.099Z,100004.00
2022-11-24T15:29:06.951Z,100003.44
2022-11-24T15:31:53.342Z,99992.53
2022-11-24T15:35:11.063Z,100000.38
2022-11-24T15:37:57.861Z,100007.09
2022-11-24T15:40:46.742Z,99974.81
2022-11-24T15:43:39.376Z,100000.06
2022-11-24T15:46:31.102Z,100003.31
2022-11-24T15:49:19.255Z,100013.66
2022-11-24T15:52:07.072Z,100011.25
2022-11-24T15:54:56.177Z,99994.94
2022-11-24T15:57:43.731Z,100014.47
2022-11-24T16:00:32.891Z,100008.19
2022-11-24T16:03:46.485Z,100010.31
2022-11-24T16:06:34.436Z,100022.25
2022-11-24T16:09:21.209Z,100014.16
2022-11-24T16:12:11.739Z,100013.66
2022-11-24T16:15:08.396Z,100019.38
2022-11-24T16:17:54.958Z,100018.00
2022-11-24T16:20:46.537Z,100021.31
2022-11-24T16:23:40.078Z,100002.81
2022-11-24T16:26:27.221Z,100021.25
2022-11-24T16:29:16.435Z,100018.00
2022-11-24T16:32:06.647Z,100021.84
2022-11-24T16:34:59.835Z,99997.41
2022-11-24T16:37:46.257Z,100016.16
2022-11-24T16:40:35.059Z,100017.53
2022-11-24T16:43:22.846Z,100013.69
2022-11-24T16:46:09.026Z,100028.94
2022-11-24T16:49:03.734Z,100009.91
2022-11-24T16:51:53.250Z,100024.28
2022-11-24T16:54:42.991Z,100031.09
2022-11-24T16:57:29.556Z,100038.34
2022-11-24T17:00:19.210Z,100040.47
2022-11-24T17:03:07.362Z,100035.84
2022-11-24T17:05:58.634Z,100042.13
2022-11-24T17:08:53.129Z,100018.19
2022-11-24T17:11:40.343Z,100054.88
2022-11-24T17:14:28.853Z,100028.53
2022-11-24T17:17:15.612Z,100032.06
2022-11-24T17:20:08.105Z,100052.22
2022-11-24T17:23:02.145Z,100056.00
2022-11-24T17:25:55.864Z,100056.22
2022-11-24T17:28:48.175Z,100043.50
2022-11-24T17:31:42.432Z,100058.13
2022-11-24T17:34:41.040Z,100074.97
2022-11-24T17:37:34.727Z,100070.56
2022-11-24T17:40:29.473Z,100079.81
2022-11-24T17:43:21.726Z,100057.22
2022-11-24T17:46:11.918Z,100089.03
2022-11-24T17:49:01.769Z,100093.97
2022-11-24T17:51:53.178Z,100098.34
2022-11-24T17:54:46.603Z,100093.06
2022-11-24T17:57:37.182Z,100100.16
2022-11-24T18:00:27.486Z,100071.88
2022-11-24T18:03:26.785Z,100092.50
2022-11-24T18:06:25.907Z,100108.22
2022-11-24T18:09:13.958Z,100107.44
2022-11-24T18:12:03.919Z,100083.75
2022-11-24T18:14:54.379Z,100111.81
2022-11-24T18:17:47.150Z,100104.25
2022-11-24T18:20:37.820Z,100100.16
2022-11-24T18:23:38.767Z,100114.56
2022-11-24T18:26:28.458Z,100115.63
2022-11-24T18:29:23.832Z,100122.41
2022-11-24T18:32:16.762Z,100112.41
2022-11-24T18:35:08.434Z,100117.25
2022-11-24T18:37:59.298Z,100122.94
2022-11-24T18:41:00.405Z,100119.69
2022-11-24T18:43:51.082Z,100121.88
2022-11-24T18:46:44.722Z,100122.41
2022-11-24T18:49:35.023Z,100124.59
2022-11-24T18:52:28.024Z,100120.81
2022-11-24T18:55:26.650Z,100126.22
2022-11-24T18:58:16.430Z,100116.50
2022-11-24T19:01:17.784Z,100093.94
2022-11-24T19:04:09.709Z,100130.63
2022-11-24T19:07:09.223Z,100121.66
2022-11-24T19:10:03.349Z,100121.06
2022-11-24T19:13:00.012Z,100127.03
2022-11-24T19:15:50.289Z,100145.50
2022-11-24T19:18:41.367Z,100137.88
2022-11-24T19:21:34.280Z,100143.88
2022-11-24T19:24:22.344Z,100147.13
2022-11-24T19:27:20.048Z,100156.09
2022-11-24T19:30:13.396Z,100142.81
2022-11-24T19:33:04.738Z,100147.13
2022-11-24T19:36:09.790Z,100149.84
2022-11-24T19:39:03.438Z,100143.63
2022-11-24T19:41:57.192Z,100118.56
2022-11-24T19:44:54.757Z,100158.53
2022-11-24T19:47:47.369Z,100156.88
2022-11-24T19:50:37.299Z,100154.09
2022-11-24T19:53:29.158Z,100170.59
2022-11-24T19:56:24.624Z,100163.78
2022-11-24T19:59:18.433Z,100130.06
2022-11-24T20:02:12.020Z,100163.25
2022-11-24T20:05:01.416Z,100155.69
2022-11-24T20:07:55.415Z,100167.69
2022-11-24T20:10:48.680Z,100132.34
2022-11-24T20:13:44.647Z,100161.91
2022-11-24T20:16:32.871Z,100139.34
2022-11-24T20:19:24.522Z,100167.94
2022-11-24T20:22:15.622Z,100176.91
2022-11-24T20:25:04.679Z,100166.09
2022-11-24T20:27:51.309Z,100154.16
2022-11-24T20:30:43.729Z,100167.88
2022-11-24T20:33:30.734Z,100180.97
2022-11-24T20:36:31.437Z,100179.91
2022-11-24T20:39:29.376Z,100175.81
2022-11-24T20:42:15.902Z,100148.06
2022-11-24T20:45:03.717Z,100170.06
2022-11-24T20:47:54.359Z,100161.41
2022-11-24T20:50:48.291Z,100151.91
2022-11-24T20:53:39.327Z,100165.84
2022-11-24T20:56:40.986Z,100168.25
2022-11-24T20:59:27.331Z,100155.44
2022-11-24T21:02:17.618Z,100138.88
2022-11-24T21:05:05.559Z,100162.81
2022-11-24T21:08:00.327Z,100142.16
2022-11-24T21:10:58.162Z,100160.69
2022-11-24T21:13:48.931Z,100162.91
2022-11-24T21:16:42.076Z,100173.72
2022-11-24T21:19:33.129Z,100170.47
2022-11-24T21:22:26.361Z,100141.34
2022-11-24T21:25:13.926Z,100176.19
2022-11-24T21:28:00.935Z,100172.94
2022-11-24T21:30:50.518Z,100172.34
2022-11-24T21:33:47.807Z,100179.69
2022-11-24T21:36:35.248Z,100178.34
2022-11-24T21:39:29.949Z,100178.34
2022-11-24T21:42:17.243Z,100179.41
2022-11-24T21:45:05.024Z,100191.06
2022-11-24T21:48:01.290Z,100187.78
2022-11-24T21:50:53.145Z,100186.16
2022-11-24T21:53:51.995Z,100184.56
2022-11-24T21:56:40.374Z,100194.00
2022-11-24T21:59:31.872Z,100190.44
2022-11-24T22:02:21.594Z,100181.69
2022-11-24T22:05:13.772Z,100189.59
2022-11-24T22:07:59.967Z,100189.91
2022-11-24T22:10:46.609Z,100181.72
2022-11-24T22:13:33.609Z,100199.13
2022-11-24T22:16:23.414Z,100192.03
2022-11-24T22:19:10.579Z,100177.59
2022-11-24T22:21:58.126Z,100218.94
2022-11-24T22:24:44.570Z,100203.75
2022-11-24T22:27:30.852Z,100221.94
2022-11-24T22:30:20.534Z,100215.72
2022-11-24T22:33:07.570Z,100212.47
2022-11-24T22:35:58.177Z,100195.88
2022-11-24T22:38:48.032Z,100218.13
2022-11-24T22:41:38.730Z,100196.38
2022-11-24T22:44:25.143Z,100215.97
2022-11-24T22:47:11.849Z,100208.13
2022-11-24T22:49:58.480Z,100208.38
2022-11-24T22:52:45.321Z,100183.84
2022-11-24T22:55:39.459Z,100207.53
2022-11-24T22:58:26.962Z,100213.22
2022-11-24T23:01:21.939Z,100215.88
2022-11-24T23:04:08.259Z,100200.38
2022-11-24T23:06:55.178Z,100223.78
2022-11-24T23:09:41.785Z,100227.56
2022-11-24T23:12:33.853Z,100212.59
2022-11-24T23:15:20.986Z,100241.88
2022-11-24T23:18:07.855Z,100203.53
2022-11-24T23:20:53.944Z,100229.97
2022-11-24T23:23:41.324Z,100240.56
2022-11-24T23:26:31.561Z,100247.34
2022-11-24T23:29:21.363Z,100252.75
2022-11-24T23:32:11.664Z,100244.34
2022-11-24T23:34:58.882Z,100246.78
2022-11-24T23:38:06.519Z,100243.00
2022-11-24T23:40:55.876Z,100246.78
2022-11-24T23:43:50.881Z,100229.44
2022-11-24T23:46:37.570Z,100250.63
2022-11-24T23:49:24.166Z,100250.66
2022-11-24T23:52:12.829Z,100251.72
2022-11-24T23:54:59.027Z,100241.94
2022-11-24T23:57:45.442Z,100240.00
